Aviation Digital Data Service (ADDS)

Output produced by METARs form (0823 UTC 23 January 2017)
found at http://aviationweather.gov/adds/metars/
 
KCLE 230520Z 2306/2412 02005KT 5SM BR OVC005 
     TEMPO 2306/2308 SCT005 OVC035 
     FM231100 04010KT 3SM -RA BR OVC008 
     FM231400 04010KT 2SM -RA BR OVC004 
     FM240000 03006KT 4SM BR OVC010